BIARBIEG

Guest
Details From BIAR - Akureyri
To BIEG - Egilsstadir
Flight Number -
Tags generated
Created
Modified
Stats Distance 94 nm / 175 km
Max Altitude 4,200 ft / 1,280 m
Waypoints 3
Social Downloads 9
Likes 0
Share VATSIM

Download

Looking for another format? Having issues loading an existing format? Contact us
Advertisement - Login to hide

Notes

Basic altitude profile: - Ascent Rate: 2500ft/min - Ascent Speed: 250kts - Cruise Altitude: 35000ft - Cruise Speed: 420kts - Descent Rate: 1500ft/min - Descent Speed: 250kts Options: - Use NATs: yes - Use PACOTS: yes - Use low airways: yes - Use high airways: yes

Route

BIAR FELLI BIEG

ID Type Via Altitude Latitude Longitude Leg Dist Tot Dist Heading (true) Name
O BIAR APT - 0 ft / 0 m 65.65657˚ -18.07197˚ - 0 nm - Akureyri
FELLI FIX - 4,200 ft / 1,280 m 65.35417˚ -15.17389˚ 74 nm 74 nm 103° / 105° -
O BIEG APT - 0 ft / 0 m 65.28283˚ -14.40206˚ 19 nm 94 nm 102° / 103° Egilsstadir

Altitude Profile

Advertisement - Login to hide

BIAR

Details ICAO BIAR (AEY)
Name Akureyri
Region Iceland
Timezone Unknown (UTC+0.0)
Stats Elevation 5 ft / 2 m (AMSL)
Location 65.656574° -18.071975°
Runways 1
Magnetic Variation 12.293° W

METAR

BIAR 170400Z 14005KT 090V210 9999 FEW066 02/M04 Q0995 R01/790237 RMK RWY SANDED

Decode

TAF

TAF BIAR 170135Z 1703/1803 25015G25KT 9999 FEW025 SCT045 TX03/1703Z TNM03/1710Z BECMG 1721/1724 20013KT PROB40 TEMPO 1800/1803 17015G25KT 5000 -SHSN BKN015

Decode

Departure Runways

ID Width Length Bearing (true) Bearing (mag) Surface Threshold Offset Overrun Length
01 148 ft / 45 m 7,855 ft / 2,394 m 355.54° 7.83° Asphalt 0 ft / 0 m 0 ft / 0 m
19 148 ft / 45 m 7,855 ft / 2,394 m 175.54° 187.83° Asphalt 0 ft / 0 m 0 ft / 0 m

BIEG

Details ICAO BIEG (EGS)
Name Egilsstadir
Region Iceland
Timezone Atlantic/Reykjavik (UTC+0.0)
Stats Elevation 76 ft / 23 m (AMSL)
Location 65.282830° -14.402058°
Runways 1
Magnetic Variation 10.112° W

METAR

BIEG 170400Z 22004G21KT 9999 SCT049 BKN067 05/M02 Q0992 R04/790194 RMK RWY SANDED

Decode

TAF

TAF BIEG 170135Z 1703/1803 20012KT 9999 FEW025 BKN035 TX01/1703Z TNM02/1712Z FM170430 26015G25KT BECMG 1721/1724 19010KT PROB40 1800/1803 16015G25KT 5000 -SN BKN015

Decode

Destination Runways

ID Width Length Bearing (true) Bearing (mag) Surface Threshold Offset Overrun Length
04 148 ft / 45 m 6,569 ft / 2,002 m 25.32° 35.43° Asphalt 492 ft / 150 m 0 ft / 0 m
22 148 ft / 45 m 6,569 ft / 2,002 m 205.34° 215.45° Asphalt 0 ft / 0 m 197 ft / 60 m

Approach Navaids

Runway Type Ident Frequency Range Bearing (true) Bearing (mag) Slope Elevation
04 Localiser IES 109.30 MHz 18 nm / 33 km 25.26° 35.37° - 76 ft / 23 m (AMSL)
04 Glidescope IES 109.30 MHz 10 nm / 19 km 25.26° 35.37° 3.00° 76 ft / 23 m (AMSL)
04 DME IES 109.30 MHz 18 nm / 33 km - - - 100 ft / 30 m (AMSL)

Popular Alternatives